Time;durP1;ratioP1;P1;durP2;ratioP2;P2;SDS_P1;SDS_P2;PMS_P1;PMS_P2;Temp;Humidity;BMP_temperature;BMP_pressure;BME280_temperature;BME280_humidity;BME280_pressure;Samples;Min_cycle;Max_cycle;Signal;HPM_P1;HPM_P2
2023/08/31 00:01:48;;;;;;;3.80;1.47;;;12.10;61.90;;;;;;5105210;28;20401;-71
2023/08/31 00:04:16;;;;;;;4.70;1.27;;;12.10;61.80;;;;;;5107207;28;20487;-71
2023/08/31 00:06:44;;;;;;;4.97;1.30;;;12.10;61.70;;;;;;5105062;28;20485;-70
2023/08/31 00:09:10;;;;;;;3.40;1.10;;;12.00;62.10;;;;;;5107131;28;20827;-70
2023/08/31 00:11:37;;;;;;;4.47;1.75;;;12.00;61.70;;;;;;5102929;28;20443;-71
2023/08/31 00:14:02;;;;;;;3.17;1.17;;;12.00;61.70;;;;;;5087688;28;20394;-71
2023/08/31 00:16:29;;;;;;;3.15;1.05;;;12.00;62.50;;;;;;5084994;28;20481;-71
2023/08/31 00:18:56;;;;;;;3.13;0.82;;;12.00;62.20;;;;;;5107532;28;20393;-70
2023/08/31 00:21:22;;;;;;;3.57;0.97;;;12.00;62.30;;;;;;5106656;28;20868;-70
2023/08/31 00:23:48;;;;;;;5.22;1.13;;;12.00;62.40;;;;;;5106341;28;20475;-70
2023/08/31 00:26:14;;;;;;;2.50;0.88;;;11.90;62.20;;;;;;5106258;28;20897;-71
2023/08/31 00:28:42;;;;;;;4.13;0.80;;;11.90;62.40;;;;;;5107248;28;20747;-72
2023/08/31 00:31:08;;;;;;;4.60;1.20;;;11.90;62.50;;;;;;5105961;28;20399;-72
2023/08/31 00:33:34;;;;;;;2.72;1.15;;;11.90;62.20;;;;;;5107282;28;20427;-71
2023/08/31 00:36:03;;;;;;;5.38;0.80;;;11.90;61.90;;;;;;5105221;28;20459;-71
2023/08/31 00:38:30;;;;;;;2.97;1.20;;;11.90;61.80;;;;;;5106202;28;20416;-71
2023/08/31 00:40:55;;;;;;;2.10;0.90;;;11.80;61.80;;;;;;5104442;28;20453;-72
2023/08/31 00:43:21;;;;;;;4.25;0.93;;;11.80;62.10;;;;;;5103683;28;21265;-72
2023/08/31 00:45:50;;;;;;;3.67;1.08;;;11.80;62.60;;;;;;5078803;28;20416;-71
2023/08/31 00:48:17;;;;;;;4.15;0.95;;;11.80;62.60;;;;;;5107087;28;20454;-70
2023/08/31 00:50:44;;;;;;;2.53;1.00;;;11.80;63.10;;;;;;5101867;28;20402;-70
2023/08/31 00:53:10;;;;;;;3.08;0.90;;;11.80;63.30;;;;;;5098836;28;20399;-70
2023/08/31 00:55:36;;;;;;;3.30;1.10;;;11.70;63.10;;;;;;5106390;28;20404;-70
2023/08/31 00:58:02;;;;;;;3.35;1.00;;;11.70;63.30;;;;;;5106885;28;21335;-70
2023/08/31 01:01:06;;;;;;;4.53;1.10;;;11.70;63.50;;;;;;5105381;28;20400;-70
2023/08/31 01:04:02;;;;;;;3.08;0.85;;;11.70;63.20;;;;;;5078869;28;20449;-71
2023/08/31 01:06:41;;;;;;;3.63;1.40;;;11.70;63.40;;;;;;5103959;28;20404;-71
2023/08/31 01:09:10;;;;;;;4.22;1.00;;;11.60;62.90;;;;;;5095803;28;20412;-70
2023/08/31 01:12:00;;;;;;;4.32;1.08;;;11.60;62.90;;;;;;5099917;28;20415;-70
2023/08/31 01:14:38;;;;;;;3.65;1.35;;;11.60;62.90;;;;;;5098546;28;20400;-70
2023/08/31 01:17:06;;;;;;;2.70;1.35;;;11.60;62.50;;;;;;5094244;28;20504;-70
2023/08/31 01:19:50;;;;;;;5.93;1.38;;;11.60;62.40;;;;;;5091149;28;20402;-70
2023/08/31 01:22:42;;;;;;;2.90;1.30;;;11.60;62.10;;;;;;5088691;28;20440;-72
2023/08/31 01:25:09;;;;;;;5.57;1.80;;;11.50;62.40;;;;;;5104283;28;20755;-71
2023/08/31 01:27:36;;;;;;;4.82;1.58;;;11.50;62.50;;;;;;5106742;28;20400;-71
2023/08/31 01:30:03;;;;;;;4.57;1.55;;;11.40;62.90;;;;;;5090340;28;20402;-71
2023/08/31 01:32:29;;;;;;;5.20;1.77;;;11.40;63.40;;;;;;5090448;28;21110;-70
2023/08/31 01:34:57;;;;;;;5.95;1.80;;;11.40;64.10;;;;;;5108325;28;20404;-70
2023/08/31 01:37:54;;;;;;;4.55;1.80;;;11.40;64.10;;;;;;5094429;28;20535;-71
2023/08/31 01:40:25;;;;;;;4.68;1.80;;;11.40;63.50;;;;;;5092927;28;20423;-71
2023/08/31 01:42:51;;;;;;;4.90;1.88;;;11.40;64.30;;;;;;5097515;28;20432;-72
2023/08/31 01:45:20;;;;;;;5.07;1.70;;;11.40;64.80;;;;;;5089377;28;20451;-72
2023/08/31 01:47:46;;;;;;;4.03;1.60;;;11.30;65.50;;;;;;5093967;28;20418;-71
2023/08/31 01:50:12;;;;;;;3.53;2.00;;;11.40;66.20;;;;;;5081651;28;20484;-70
2023/08/31 01:52:38;;;;;;;4.53;1.90;;;11.40;67.00;;;;;;5094724;28;20417;-70
2023/08/31 01:55:05;;;;;;;7.57;1.95;;;11.30;66.90;;;;;;5091918;28;20421;-70
2023/08/31 01:57:31;;;;;;;4.78;1.60;;;11.40;67.90;;;;;;5099407;28;20434;-70
2023/08/31 01:59:57;;;;;;;4.82;1.70;;;11.30;67.90;;;;;;5094160;28;20913;-70
2023/08/31 02:02:23;;;;;;;5.27;1.87;;;11.30;67.80;;;;;;5090487;28;20489;-71
2023/08/31 02:04:50;;;;;;;6.53;1.67;;;11.30;67.90;;;;;;5094154;28;20429;-71
2023/08/31 02:07:16;;;;;;;3.78;1.80;;;11.30;67.90;;;;;;5090850;28;20406;-70
2023/08/31 02:09:41;;;;;;;4.73;1.80;;;11.20;68.00;;;;;;5092484;28;21022;-70
2023/08/31 02:12:09;;;;;;;3.53;1.60;;;11.20;67.60;;;;;;5091785;28;20488;-70
2023/08/31 02:14:35;;;;;;;9.93;1.90;;;11.20;67.60;;;;;;5090982;28;20489;-70
2023/08/31 02:17:00;;;;;;;4.13;1.73;;;11.20;68.00;;;;;;5090516;28;20893;-70
2023/08/31 02:19:26;;;;;;;5.38;1.42;;;11.20;68.30;;;;;;5090401;28;20466;-70
2023/08/31 02:21:52;;;;;;;5.55;1.70;;;11.20;69.60;;;;;;5089165;28;20397;-71
2023/08/31 02:24:17;;;;;;;4.70;1.60;;;11.20;70.60;;;;;;5092374;28;20447;-71
2023/08/31 02:26:43;;;;;;;4.35;1.60;;;11.10;70.80;;;;;;5090861;28;20808;-71
2023/08/31 02:29:08;;;;;;;4.53;1.47;;;11.10;71.00;;;;;;5091219;28;20413;-71
2023/08/31 02:31:34;;;;;;;2.80;1.50;;;11.10;71.60;;;;;;5091673;28;20402;-71
2023/08/31 02:34:00;;;;;;;4.70;1.63;;;11.10;71.70;;;;;;5092959;28;20431;-71
2023/08/31 02:36:26;;;;;;;6.10;1.85;;;11.20;71.60;;;;;;5089963;28;20429;-71
2023/08/31 02:38:52;;;;;;;4.93;1.50;;;11.10;72.10;;;;;;5091252;28;20907;-70
2023/08/31 02:41:18;;;;;;;4.43;1.58;;;11.10;72.10;;;;;;5090104;28;20489;-71
2023/08/31 02:43:44;;;;;;;6.45;1.92;;;11.20;72.20;;;;;;5090460;28;20760;-71
2023/08/31 02:46:10;;;;;;;4.15;1.38;;;11.20;72.40;;;;;;5090157;28;20500;-71
2023/08/31 02:48:36;;;;;;;5.57;1.45;;;11.20;72.90;;;;;;5089656;28;20918;-71
2023/08/31 02:51:02;;;;;;;5.70;1.60;;;11.20;73.00;;;;;;5100278;28;20411;-71
2023/08/31 02:53:29;;;;;;;4.45;1.27;;;11.20;73.20;;;;;;5104038;28;20402;-71
2023/08/31 02:55:55;;;;;;;3.20;1.17;;;11.20;72.70;;;;;;5100108;28;20514;-71
2023/08/31 02:58:21;;;;;;;6.60;1.52;;;11.20;72.70;;;;;;5092313;28;20887;-71
2023/08/31 03:00:48;;;;;;;3.03;1.20;;;11.20;72.30;;;;;;5091416;28;20463;-71
2023/08/31 03:03:17;;;;;;;3.75;1.55;;;11.20;72.20;;;;;;5090460;28;20899;-71
2023/08/31 03:05:43;;;;;;;6.10;1.40;;;11.10;72.00;;;;;;5091309;28;20401;-71
2023/08/31 03:08:09;;;;;;;5.75;1.50;;;11.10;71.90;;;;;;5092228;28;20764;-71
2023/08/31 03:10:36;;;;;;;4.22;1.38;;;11.10;71.90;;;;;;5089763;28;20489;-70
2023/08/31 03:13:02;;;;;;;5.53;1.65;;;11.10;72.10;;;;;;5090028;28;20464;-70
2023/08/31 03:15:27;;;;;;;4.97;1.38;;;11.10;72.30;;;;;;5090608;28;20414;-71
2023/08/31 03:17:53;;;;;;;3.60;1.57;;;11.10;72.20;;;;;;5091605;28;20409;-71
2023/08/31 03:20:19;;;;;;;5.13;1.45;;;11.10;72.30;;;;;;5090347;28;20926;-71
2023/08/31 03:22:44;;;;;;;3.58;1.17;;;11.10;72.60;;;;;;5091318;28;20788;-71
2023/08/31 03:25:10;;;;;;;3.33;1.23;;;11.10;72.40;;;;;;5090348;28;20420;-72
2023/08/31 03:27:36;;;;;;;3.50;1.30;;;11.00;72.40;;;;;;5091046;28;20405;-71
2023/08/31 03:30:03;;;;;;;4.10;1.27;;;11.10;72.70;;;;;;5088827;28;20468;-70
2023/08/31 03:32:29;;;;;;;4.50;1.42;;;11.00;72.80;;;;;;5092151;28;20405;-70
2023/08/31 03:34:54;;;;;;;4.60;1.30;;;11.00;72.90;;;;;;5088928;28;20447;-70
2023/08/31 03:37:21;;;;;;;3.40;1.20;;;11.00;73.00;;;;;;5089772;28;20476;-70
2023/08/31 03:39:50;;;;;;;3.95;1.30;;;11.00;73.30;;;;;;5088058;28;20410;-70
2023/08/31 03:42:16;;;;;;;3.70;1.00;;;11.00;73.10;;;;;;5090729;28;20446;-71
2023/08/31 03:44:42;;;;;;;3.65;1.10;;;11.00;72.90;;;;;;5089800;28;20410;-71
2023/08/31 03:47:07;;;;;;;3.38;1.10;;;11.00;73.20;;;;;;5089795;28;20401;-71
2023/08/31 03:49:34;;;;;;;5.90;1.30;;;11.00;73.10;;;;;;5088890;28;20959;-71
2023/08/31 03:52:00;;;;;;;3.63;1.20;;;10.90;73.50;;;;;;5088594;28;20480;-71
2023/08/31 03:54:26;;;;;;;3.22;1.20;;;10.90;73.60;;;;;;5088619;28;20439;-72
2023/08/31 03:56:51;;;;;;;3.60;1.13;;;10.90;74.30;;;;;;5088731;28;20426;-72
2023/08/31 03:59:18;;;;;;;4.20;1.33;;;10.90;73.70;;;;;;5090367;28;20402;-71
2023/08/31 04:01:43;;;;;;;3.65;1.20;;;10.90;73.40;;;;;;5087319;28;20406;-72
2023/08/31 04:04:09;;;;;;;4.80;1.20;;;10.90;73.20;;;;;;5089789;28;20405;-71
2023/08/31 04:06:35;;;;;;;5.43;1.40;;;10.80;73.20;;;;;;5091172;28;20405;-71
2023/08/31 04:09:00;;;;;;;3.60;1.40;;;10.80;73.50;;;;;;5089525;28;20516;-71
2023/08/31 04:11:26;;;;;;;3.05;1.20;;;10.90;73.90;;;;;;5090923;28;20496;-71
2023/08/31 04:13:53;;;;;;;2.92;1.30;;;10.80;73.90;;;;;;5089988;28;20744;-71
2023/08/31 04:16:18;;;;;;;4.68;1.30;;;10.80;73.80;;;;;;5090324;28;20430;-71
2023/08/31 04:18:51;;;;;;;3.55;1.80;;;10.80;73.40;;;;;;5089322;28;20409;-71
2023/08/31 04:21:17;;;;;;;3.78;1.40;;;10.80;73.90;;;;;;5089223;28;20401;-71
2023/08/31 04:23:43;;;;;;;4.38;1.52;;;10.80;74.40;;;;;;5089602;28;20393;-71
2023/08/31 04:26:17;;;;;;;4.88;1.50;;;10.80;74.30;;;;;;5089863;28;20471;-71
2023/08/31 04:28:43;;;;;;;6.78;1.58;;;10.80;74.30;;;;;;5087728;28;20434;-71
2023/08/31 04:31:09;;;;;;;4.72;1.65;;;10.70;74.50;;;;;;5107309;28;20392;-71
2023/08/31 04:33:35;;;;;;;4.68;1.80;;;10.80;75.30;;;;;;5094074;28;20390;-71
2023/08/31 04:36:03;;;;;;;5.55;1.60;;;10.80;75.60;;;;;;5105491;28;20800;-71
2023/08/31 04:38:30;;;;;;;5.20;1.70;;;10.80;76.00;;;;;;5104315;28;20419;-71
2023/08/31 04:40:59;;;;;;;4.37;1.80;;;10.90;76.20;;;;;;5088133;28;20459;-71
2023/08/31 04:43:25;;;;;;;4.75;1.70;;;10.80;76.20;;;;;;5097193;28;20419;-71
2023/08/31 04:45:52;;;;;;;7.10;1.80;;;10.80;76.20;;;;;;5100008;28;20400;-71
2023/08/31 04:48:17;;;;;;;4.93;2.00;;;10.90;76.50;;;;;;5092567;28;20440;-71
2023/08/31 04:50:43;;;;;;;4.57;1.90;;;10.90;76.80;;;;;;5099573;28;20481;-71
2023/08/31 04:53:08;;;;;;;5.87;1.87;;;10.90;77.50;;;;;;5101016;28;20404;-71
2023/08/31 04:55:34;;;;;;;7.57;2.37;;;10.90;77.60;;;;;;5098938;28;20396;-71
2023/08/31 04:58:00;;;;;;;4.50;2.20;;;10.90;78.10;;;;;;5093423;28;20405;-71
2023/08/31 05:00:25;;;;;;;7.00;2.10;;;10.90;78.40;;;;;;5093570;28;20398;-71
2023/08/31 05:02:51;;;;;;;5.38;1.85;;;11.00;78.60;;;;;;5094308;28;20401;-72
2023/08/31 05:05:18;;;;;;;4.83;1.80;;;11.00;78.70;;;;;;5093410;28;20535;-72
2023/08/31 05:07:44;;;;;;;6.05;1.90;;;11.00;78.60;;;;;;5094767;28;20971;-72
2023/08/31 05:10:10;;;;;;;5.45;2.20;;;11.00;78.50;;;;;;5093579;28;20474;-69
2023/08/31 05:12:35;;;;;;;4.78;2.08;;;11.00;78.40;;;;;;5095277;28;20401;-70
2023/08/31 05:15:02;;;;;;;5.60;1.87;;;11.00;78.40;;;;;;5092774;28;20493;-70
2023/08/31 05:17:28;;;;;;;4.95;1.92;;;10.90;78.50;;;;;;5092056;28;20425;-68
2023/08/31 05:19:53;;;;;;;6.03;2.10;;;10.90;78.20;;;;;;5092409;28;20968;-69
2023/08/31 05:22:19;;;;;;;4.47;2.20;;;11.00;78.40;;;;;;5092373;28;20426;-70
2023/08/31 05:24:44;;;;;;;6.15;2.10;;;11.00;78.60;;;;;;5091762;28;21616;-71
2023/08/31 05:27:10;;;;;;;5.73;2.50;;;11.00;79.00;;;;;;5091996;28;20443;-71
2023/08/31 05:29:36;;;;;;;4.13;2.17;;;11.00;79.50;;;;;;5091368;28;20402;-71
2023/08/31 05:32:02;;;;;;;5.90;2.33;;;11.00;80.40;;;;;;5090559;28;20398;-72
2023/08/31 05:34:28;;;;;;;5.80;2.42;;;11.10;81.00;;;;;;5103387;28;20394;-72
2023/08/31 05:36:54;;;;;;;6.47;2.65;;;11.10;81.40;;;;;;5103590;28;20420;-72
2023/08/31 05:39:19;;;;;;;5.67;2.50;;;11.10;81.50;;;;;;5110071;28;20486;-72
2023/08/31 05:41:45;;;;;;;5.18;2.38;;;11.20;82.00;;;;;;5109564;28;20404;-72
2023/08/31 05:44:10;;;;;;;5.27;2.80;;;11.20;82.20;;;;;;5103817;28;20404;-72
2023/08/31 05:46:38;;;;;;;4.50;2.42;;;11.30;82.30;;;;;;5103648;28;21125;-70
2023/08/31 05:49:04;;;;;;;5.55;2.65;;;11.30;82.20;;;;;;5096638;28;21080;-71
2023/08/31 05:51:29;;;;;;;4.93;2.83;;;11.30;82.30;;;;;;5109967;28;20483;-71
2023/08/31 05:53:55;;;;;;;6.57;2.80;;;11.40;82.70;;;;;;5110910;28;20479;-71
2023/08/31 05:56:20;;;;;;;5.80;2.70;;;11.40;82.90;;;;;;5107614;28;20435;-71
2023/08/31 05:58:47;;;;;;;4.97;2.60;;;11.50;82.70;;;;;;5091575;28;20405;-71
2023/08/31 06:01:12;;;;;;;7.13;2.88;;;11.50;82.70;;;;;;5073586;28;20412;-71
2023/08/31 06:03:38;;;;;;;7.57;3.10;;;11.60;83.00;;;;;;5092561;28;20398;-71
2023/08/31 06:06:04;;;;;;;5.32;2.63;;;11.60;83.20;;;;;;5093397;28;20397;-71
2023/08/31 06:08:33;;;;;;;4.50;2.60;;;11.70;83.70;;;;;;5090545;28;20471;-71
2023/08/31 06:10:58;;;;;;;6.47;2.60;;;11.70;84.00;;;;;;5091240;28;20442;-71
2023/08/31 06:13:24;;;;;;;6.70;2.55;;;11.80;84.30;;;;;;5092086;28;20430;-71
2023/08/31 06:15:50;;;;;;;5.70;2.53;;;11.80;84.50;;;;;;5092153;28;20452;-71
2023/08/31 06:18:15;;;;;;;6.93;2.63;;;11.90;84.30;;;;;;5091386;28;20578;-71
2023/08/31 06:20:41;;;;;;;4.83;2.20;;;11.90;84.80;;;;;;5091853;28;20475;-71
2023/08/31 06:23:07;;;;;;;5.60;2.17;;;12.00;84.80;;;;;;5089578;28;20402;-71
2023/08/31 06:25:32;;;;;;;5.93;2.10;;;12.00;84.40;;;;;;5091287;28;20422;-71
2023/08/31 06:27:58;;;;;;;5.73;2.20;;;12.10;85.00;;;;;;5089902;28;20460;-71
2023/08/31 06:30:24;;;;;;;6.10;2.20;;;12.10;85.30;;;;;;5104023;28;20388;-71
2023/08/31 06:32:50;;;;;;;6.15;2.10;;;12.20;85.00;;;;;;5108716;28;20411;-71
2023/08/31 06:35:16;;;;;;;5.27;1.60;;;12.20;84.90;;;;;;5108365;28;20396;-71
2023/08/31 06:37:43;;;;;;;5.57;1.90;;;12.30;85.20;;;;;;5105972;28;20531;-71
2023/08/31 06:40:10;;;;;;;5.88;1.98;;;12.30;85.50;;;;;;5105683;28;20404;-71
2023/08/31 06:42:39;;;;;;;5.55;1.80;;;12.40;85.90;;;;;;5093801;28;20423;-71
2023/08/31 06:45:07;;;;;;;5.68;1.50;;;12.40;85.50;;;;;;5104038;28;20917;-71
2023/08/31 06:47:33;;;;;;;6.25;1.70;;;12.50;85.00;;;;;;5103989;28;20399;-71
2023/08/31 06:49:59;;;;;;;4.60;1.55;;;12.60;86.10;;;;;;5101773;28;20388;-71
2023/08/31 06:52:26;;;;;;;5.00;1.33;;;12.70;86.10;;;;;;5092085;28;20847;-71
2023/08/31 06:54:55;;;;;;;4.68;1.60;;;12.80;86.00;;;;;;5093523;28;20398;-71
2023/08/31 06:57:22;;;;;;;3.88;1.00;;;12.90;86.60;;;;;;5098122;28;20479;-71
2023/08/31 06:59:48;;;;;;;6.10;1.30;;;13.00;86.50;;;;;;5092239;28;20440;-71
2023/08/31 07:02:13;;;;;;;5.45;1.50;;;13.10;87.20;;;;;;5091465;28;20398;-71
2023/08/31 07:04:39;;;;;;;5.43;1.50;;;13.10;87.20;;;;;;5090905;28;20400;-71
2023/08/31 07:07:05;;;;;;;6.17;1.03;;;13.20;87.60;;;;;;5090964;28;20450;-71
2023/08/31 07:09:31;;;;;;;3.88;0.85;;;13.30;86.20;;;;;;5090645;28;20390;-71
2023/08/31 07:11:58;;;;;;;4.47;1.40;;;13.40;86.10;;;;;;5090055;28;20390;-71
2023/08/31 07:14:24;;;;;;;5.40;1.00;;;13.50;86.20;;;;;;5088942;28;20432;-71
2023/08/31 07:16:50;;;;;;;6.25;1.20;;;13.50;85.20;;;;;;5090516;28;20460;-72
2023/08/31 07:19:16;;;;;;;4.15;0.82;;;13.60;85.30;;;;;;5092382;28;20400;-71
2023/08/31 07:21:41;;;;;;;4.37;0.90;;;13.70;85.10;;;;;;5090207;28;20410;-71
2023/08/31 07:24:07;;;;;;;3.33;0.90;;;13.80;84.30;;;;;;5089135;28;20396;-71
2023/08/31 07:26:34;;;;;;;5.38;1.30;;;13.90;84.00;;;;;;5090492;28;20410;-71
2023/08/31 07:29:02;;;;;;;4.10;1.00;;;14.00;83.50;;;;;;5102309;28;21558;-71
2023/08/31 07:31:28;;;;;;;2.45;0.82;;;14.00;82.00;;;;;;5089029;28;20401;-71
2023/08/31 07:33:54;;;;;;;4.60;0.87;;;14.10;81.60;;;;;;5100818;28;20394;-71
2023/08/31 07:36:19;;;;;;;4.83;0.90;;;14.20;81.50;;;;;;5088835;28;20556;-71
2023/08/31 07:38:45;;;;;;;4.40;0.77;;;14.30;81.30;;;;;;5102511;28;20428;-71
2023/08/31 07:41:10;;;;;;;3.53;0.70;;;14.40;81.10;;;;;;5108121;28;20454;-71
2023/08/31 07:43:36;;;;;;;4.23;0.57;;;14.60;81.00;;;;;;5104738;28;20434;-71
2023/08/31 07:46:01;;;;;;;3.20;0.50;;;14.70;79.60;;;;;;5096268;28;20824;-71
2023/08/31 07:48:27;;;;;;;6.10;0.87;;;14.80;77.60;;;;;;5104016;28;20857;-71
2023/08/31 07:50:53;;;;;;;2.88;0.73;;;14.90;76.10;;;;;;5107390;28;20796;-71
2023/08/31 07:53:18;;;;;;;3.50;0.50;;;15.00;74.60;;;;;;5105041;28;20412;-71
2023/08/31 07:55:56;;;;;;;5.90;0.70;;;15.10;73.80;;;;;;5106872;28;20418;-71
2023/08/31 07:58:23;;;;;;;3.65;0.60;;;15.10;71.40;;;;;;5091348;28;20407;-71
2023/08/31 08:00:49;;;;;;;2.63;0.60;;;15.20;69.90;;;;;;5090396;28;20432;-72
2023/08/31 08:03:14;;;;;;;4.32;0.40;;;15.30;66.70;;;;;;5091132;28;20518;-71
2023/08/31 08:05:41;;;;;;;3.47;0.43;;;15.30;65.10;;;;;;5089103;28;20402;-71
2023/08/31 08:08:07;;;;;;;2.15;0.40;;;15.40;63.00;;;;;;5089956;28;20455;-71
2023/08/31 08:10:33;;;;;;;2.53;0.50;;;15.50;60.30;;;;;;5087992;28;20406;-71
2023/08/31 08:12:58;;;;;;;2.60;0.33;;;15.60;59.10;;;;;;5088822;28;21016;-71
2023/08/31 08:15:24;;;;;;;1.90;0.20;;;15.70;58.30;;;;;;5086422;28;20953;-72
2023/08/31 08:17:50;;;;;;;3.83;0.40;;;15.70;57.30;;;;;;5085650;28;20536;-72
2023/08/31 08:20:16;;;;;;;2.77;0.40;;;15.80;55.70;;;;;;5087283;28;20413;-71
2023/08/31 08:22:41;;;;;;;3.42;0.50;;;15.90;55.70;;;;;;5087643;28;20402;-72
2023/08/31 08:25:07;;;;;;;2.20;0.20;;;16.00;53.30;;;;;;5086913;28;20886;-72
2023/08/31 08:27:33;;;;;;;1.83;0.20;;;16.10;53.10;;;;;;5088491;28;20409;-72
2023/08/31 08:29:59;;;;;;;2.78;0.35;;;16.30;52.40;;;;;;5087543;28;20756;-72
2023/08/31 08:32:25;;;;;;;2.72;0.30;;;16.50;48.00;;;;;;5087726;28;20539;-72
2023/08/31 08:34:51;;;;;;;4.75;0.40;;;16.70;46.20;;;;;;5088306;28;20485;-72
2023/08/31 08:37:16;;;;;;;2.27;0.40;;;16.90;43.10;;;;;;5087975;28;20422;-72
2023/08/31 08:39:42;;;;;;;3.30;0.38;;;16.90;33.80;;;;;;5088896;28;20413;-72
2023/08/31 08:42:10;;;;;;;2.77;0.50;;;16.80;32.30;;;;;;5088813;28;20402;-72
2023/08/31 08:44:36;;;;;;;2.55;0.30;;;16.70;31.70;;;;;;5098568;28;20392;-72
2023/08/31 08:47:03;;;;;;;3.72;0.50;;;16.60;28.30;;;;;;5089325;28;20405;-72
2023/08/31 08:49:31;;;;;;;2.50;0.40;;;16.50;30.20;;;;;;5088122;28;20405;-72
2023/08/31 08:51:57;;;;;;;2.50;0.60;;;16.60;35.20;;;;;;5088117;28;20409;-71
2023/08/31 08:54:23;;;;;;;2.60;0.43;;;16.60;34.10;;;;;;5088041;28;20402;-72
2023/08/31 08:56:49;;;;;;;2.08;0.28;;;16.70;34.70;;;;;;5088345;28;20422;-72
2023/08/31 08:59:14;;;;;;;4.90;0.70;;;16.90;34.10;;;;;;5087919;28;20398;-72
2023/08/31 09:01:40;;;;;;;1.77;0.32;;;17.00;32.50;;;;;;5089106;28;20464;-72
2023/08/31 09:04:06;;;;;;;4.40;1.03;;;17.20;31.20;;;;;;5087806;28;20440;-72
2023/08/31 09:06:32;;;;;;;3.00;0.30;;;17.30;24.50;;;;;;5089352;28;20406;-72
2023/08/31 09:08:59;;;;;;;3.67;0.40;;;17.10;23.80;;;;;;5087879;28;20401;-72
2023/08/31 09:11:26;;;;;;;4.45;0.40;;;16.90;23.10;;;;;;5088407;28;20394;-72
2023/08/31 09:13:52;;;;;;;3.55;0.30;;;16.80;22.80;;;;;;5088496;28;21242;-72
2023/08/31 09:16:25;;;;;;;1.83;0.20;;;16.60;24.10;;;;;;5088447;28;20414;-72
2023/08/31 09:18:50;;;;;;;1.23;0.20;;;16.50;23.80;;;;;;5088476;28;20402;-72
2023/08/31 09:21:16;;;;;;;1.92;0.30;;;16.50;26.20;;;;;;5089298;28;20409;-72
2023/08/31 09:23:44;;;;;;;3.80;0.30;;;16.90;34.00;;;;;;5087910;28;20764;-72
2023/08/31 09:26:11;;;;;;;2.53;0.30;;;17.80;33.30;;;;;;5086766;28;20407;-72
2023/08/31 09:28:40;;;;;;;1.73;0.20;;;18.60;19.10;;;;;;5087780;28;20403;-72
2023/08/31 09:31:07;;;;;;;2.78;0.32;;;18.70;1.00;;;;;;5088159;28;20409;-72
2023/08/31 09:33:35;;;;;;;2.03;0.30;;;18.60;1.80;;;;;;5099621;28;20457;-72
2023/08/31 09:36:01;;;;;;;3.75;0.30;;;18.90;2.50;;;;;;5105331;28;20427;-72
2023/08/31 09:38:27;;;;;;;3.03;0.30;;;19.60;1.00;;;;;;5105249;28;20404;-72
2023/08/31 09:41:06;;;;;;;4.50;0.22;;;20.20;1.00;;;;;;5104586;28;20416;-72
2023/08/31 09:43:32;;;;;;;1.15;0.20;;;20.70;1.00;;;;;;5101783;28;20421;-72
2023/08/31 09:45:59;;;;;;;2.03;0.22;;;21.20;1.00;;;;;;5105109;28;20396;-72
2023/08/31 09:48:26;;;;;;;1.58;0.20;;;21.70;1.00;;;;;;5105192;28;20406;-72
2023/08/31 09:50:53;;;;;;;2.13;0.47;;;22.10;1.00;;;;;;5108361;28;20487;-72
2023/08/31 09:53:20;;;;;;;2.05;0.30;;;22.10;1.00;;;;;;5103809;28;20436;-72
2023/08/31 09:55:50;;;;;;;1.70;0.20;;;22.00;1.00;;;;;;5098485;28;20399;-72
2023/08/31 09:58:22;;;;;;;1.87;0.50;;;21.50;1.00;;;;;;5093120;28;20440;-72
2023/08/31 10:00:52;;;;;;;1.92;0.20;;;21.00;1.00;;;;;;5092403;28;20406;-72
2023/08/31 10:03:18;;;;;;;0.65;0.10;;;21.10;1.00;;;;;;5092802;28;20752;-72
2023/08/31 10:05:45;;;;;;;1.92;0.30;;;21.80;1.00;;;;;;5091239;28;20455;-72
2023/08/31 10:08:11;;;;;;;2.10;0.40;;;22.60;1.00;;;;;;5092064;28;20412;-72
2023/08/31 10:10:38;;;;;;;4.55;0.60;;;23.10;1.00;;;;;;5091579;28;20394;-73
2023/08/31 10:13:07;;;;;;;5.83;0.80;;;22.50;99.90;;;;;;5090063;28;20398;-73
2023/08/31 10:15:35;;;;;;;2.97;0.47;;;20.70;99.90;;;;;;5090814;28;20459;-72
2023/08/31 10:18:02;;;;;;;2.95;0.45;;;19.10;1.00;;;;;;5089446;28;20505;-72
2023/08/31 10:20:33;;;;;;;2.80;0.60;;;18.00;1.00;;;;;;5090577;28;20416;-72
2023/08/31 10:23:03;;;;;;;4.28;0.38;;;17.30;1.00;;;;;;5089220;28;20756;-72
2023/08/31 10:25:54;;;;;;;4.03;0.45;;;16.70;1.00;;;;;;5090425;28;20973;-72
2023/08/31 10:28:25;;;;;;;2.67;0.47;;;16.50;1.00;;;;;;5099449;28;20392;-72
2023/08/31 10:31:05;;;;;;;4.00;0.60;;;16.40;4.20;;;;;;5107853;28;20901;-72
2023/08/31 10:33:42;;;;;;;1.70;0.45;;;16.40;11.60;;;;;;5096196;28;20827;-72
2023/08/31 10:36:15;;;;;;;3.05;0.57;;;16.80;26.60;;;;;;5083940;28;20506;-72
2023/08/31 10:38:45;;;;;;;3.45;0.50;;;17.70;25.90;;;;;;5103178;28;20416;-72
2023/08/31 10:41:11;;;;;;;2.60;0.40;;;18.50;16.50;;;;;;5109567;28;20438;-72
2023/08/31 10:43:59;;;;;;;3.03;0.53;;;18.90;2.70;;;;;;5107121;28;20396;-72
2023/08/31 10:46:32;;;;;;;3.33;0.70;;;19.00;1.00;;;;;;5109101;28;20988;-72
2023/08/31 10:49:14;;;;;;;2.00;0.28;;;19.10;1.00;;;;;;5106889;28;20470;-72
2023/08/31 10:51:48;;;;;;;2.45;0.22;;;19.40;1.00;;;;;;5107512;28;20439;-72
2023/08/31 10:54:24;;;;;;;2.00;0.30;;;19.70;1.00;;;;;;5109139;28;20438;-71
2023/08/31 10:57:07;;;;;;;2.15;0.35;;;19.60;1.00;;;;;;5091153;28;20783;-71
2023/08/31 10:59:50;;;;;;;2.40;0.50;;;19.30;1.00;;;;;;5090917;28;20411;-71
2023/08/31 11:02:38;;;;;;;2.30;0.33;;;18.80;1.00;;;;;;5091137;28;20907;-71
2023/08/31 11:05:14;;;;;;;1.85;0.20;;;18.30;1.00;;;;;;5088102;28;20406;-71
2023/08/31 11:07:48;;;;;;;2.75;0.60;;;18.00;1.00;;;;;;5092553;28;20804;-71
2023/08/31 11:10:27;;;;;;;1.58;0.28;;;17.70;1.00;;;;;;5080701;28;20455;-71
2023/08/31 11:12:56;;;;;;;1.73;0.20;;;17.30;1.00;;;;;;5090576;28;20779;-71
2023/08/31 11:15:23;;;;;;;1.42;0.25;;;17.20;1.00;;;;;;5088093;28;20437;-71
2023/08/31 11:17:54;;;;;;;2.03;0.50;;;17.00;1.00;;;;;;5089910;28;20422;-71
2023/08/31 11:20:22;;;;;;;1.73;0.30;;;17.00;1.00;;;;;;5088975;28;20398;-71
2023/08/31 11:22:49;;;;;;;2.92;0.40;;;16.90;1.00;;;;;;5090000;28;20402;-71
2023/08/31 11:25:16;;;;;;;2.35;0.40;;;16.90;1.00;;;;;;5089379;28;20402;-71
2023/08/31 11:27:52;;;;;;;1.90;0.30;;;16.90;1.20;;;;;;5089871;28;20406;-71
2023/08/31 11:30:19;;;;;;;5.33;0.90;;;17.20;11.60;;;;;;5089177;28;20469;-72
2023/08/31 11:32:46;;;;;;;3.80;0.40;;;18.00;25.20;;;;;;5107569;28;20400;-72
2023/08/31 11:35:12;;;;;;;2.63;0.60;;;19.10;17.80;;;;;;5107415;28;20434;-72
2023/08/31 11:37:37;;;;;;;3.83;0.73;;;20.20;10.30;;;;;;5095123;28;20528;-72
2023/08/31 11:40:05;;;;;;;2.00;0.60;;;21.20;1.00;;;;;;5107347;28;20388;-72
2023/08/31 11:42:31;;;;;;;3.80;0.40;;;22.20;1.00;;;;;;5101386;28;20394;-72
2023/08/31 11:44:57;;;;;;;2.30;0.40;;;22.80;1.00;;;;;;5099810;28;20407;-72
2023/08/31 11:47:24;;;;;;;2.60;0.40;;;22.70;1.00;;;;;;5105457;28;20399;-71
2023/08/31 11:49:50;;;;;;;4.47;0.60;;;22.00;1.00;;;;;;5104955;28;20442;-72
2023/08/31 11:52:16;;;;;;;2.42;0.40;;;21.30;1.00;;;;;;5104857;28;20397;-71
2023/08/31 11:54:42;;;;;;;3.92;0.63;;;20.40;1.00;;;;;;5104715;28;20963;-71
2023/08/31 11:57:09;;;;;;;3.70;0.57;;;19.70;1.00;;;;;;5097481;28;20467;-71
2023/08/31 11:59:36;;;;;;;3.30;0.40;;;19.20;1.00;;;;;;5091578;28;20406;-71
2023/08/31 12:02:06;;;;;;;2.92;0.40;;;18.70;1.00;;;;;;5088584;28;20456;-72
2023/08/31 12:04:31;;;;;;;1.77;0.40;;;18.40;1.00;;;;;;5091105;28;20409;-71
2023/08/31 12:07:04;;;;;;;2.60;0.60;;;18.30;1.00;;;;;;5090142;28;20467;-71
2023/08/31 12:09:30;;;;;;;2.17;0.25;;;18.20;1.00;;;;;;5091061;28;20495;-71
2023/08/31 12:11:56;;;;;;;2.28;0.50;;;18.00;1.00;;;;;;5089202;28;20590;-71
2023/08/31 12:14:27;;;;;;;3.13;0.53;;;17.80;1.00;;;;;;5091531;28;20428;-71
2023/08/31 12:17:00;;;;;;;2.22;0.50;;;17.60;1.00;;;;;;5089467;28;20457;-71
2023/08/31 12:19:30;;;;;;;3.33;0.40;;;17.60;1.00;;;;;;5089260;28;20860;-71
2023/08/31 12:21:56;;;;;;;1.45;0.30;;;17.50;1.00;;;;;;5088972;28;20416;-71
2023/08/31 12:24:23;;;;;;;2.95;0.55;;;17.50;1.00;;;;;;5090372;28;20397;-71
2023/08/31 12:26:50;;;;;;;3.10;0.60;;;17.50;1.00;;;;;;5088256;28;20995;-71
2023/08/31 12:29:16;;;;;;;2.05;0.30;;;17.70;1.00;;;;;;5088857;28;20406;-71
2023/08/31 12:31:43;;;;;;;1.40;0.30;;;18.30;1.00;;;;;;5088974;28;20394;-72
2023/08/31 12:34:09;;;;;;;2.30;0.30;;;19.20;1.00;;;;;;5089455;28;20406;-72
2023/08/31 12:36:38;;;;;;;1.55;0.38;;;20.00;1.00;;;;;;5087815;28;20518;-72
2023/08/31 12:39:06;;;;;;;1.38;0.30;;;20.80;1.00;;;;;;5086857;28;20756;-72
2023/08/31 12:41:32;;;;;;;3.53;0.53;;;21.50;1.00;;;;;;5087972;28;20398;-71
2023/08/31 12:43:58;;;;;;;3.83;0.40;;;22.00;1.00;;;;;;5088008;28;20440;-72
2023/08/31 12:46:25;;;;;;;2.60;0.50;;;22.60;1.00;;;;;;5088563;28;20824;-71
2023/08/31 12:48:52;;;;;;;2.10;0.40;;;22.90;1.00;;;;;;5087593;28;20416;-71
2023/08/31 12:51:18;;;;;;;3.20;0.38;;;23.30;1.00;;;;;;5099831;28;20396;-72